Time;durP1;ratioP1;P1;durP2;ratioP2;P2;SDS_P1;SDS_P2;PMS_P1;PMS_P2;Temp;Humidity;BMP_temperature;BMP_pressure;BME280_temperature;BME280_humidity;BME280_pressure;Samples;Min_cycle;Max_cycle;Signal;HPM_P1;HPM_P2
2021/10/18 00:01:00;;;;;;;17.58;11.38;;;;;;;;;;5132426;28;20417;-76
2021/10/18 00:03:26;;;;;;;15.52;10.55;;;;;;;;;;5131405;28;20098;-77
2021/10/18 00:05:53;;;;;;;20.10;11.45;;;;;;;;;;5131916;28;20023;-76
2021/10/18 00:08:19;;;;;;;20.25;14.20;;;;;;;;;;5131392;28;20472;-76
2021/10/18 00:12:38;;;;;;;19.60;11.40;;;;;;;;;;5050873;28;20520;-76
2021/10/18 00:15:06;;;;;;;18.23;12.73;;;;;;;;;;5049651;28;20029;-77
2021/10/18 00:17:32;;;;;;;16.55;10.88;;;;;;;;;;5050398;28;20040;-75
2021/10/18 00:22:05;;;;;;;17.13;11.50;;;;;;;;;;5111859;27;20657;-74
2021/10/18 00:25:41;;;;;;;14.35;9.45;;;;;;;;;;5112209;27;20406;-75
2021/10/18 00:29:13;;;;;;;17.42;11.00;;;;;;;;;;5111664;27;20524;-77
2021/10/18 00:31:40;;;;;;;21.35;10.93;;;;;;;;;;5111641;28;20541;-77
2021/10/18 00:34:57;;;;;;;19.98;11.48;;;;;;;;;;5112059;27;20976;-78
2021/10/18 00:37:23;;;;;;;22.98;13.65;;;;;;;;;;5109774;28;20020;-78
2021/10/18 00:39:49;;;;;;;20.88;13.20;;;;;;;;;;5111314;28;20078;-75
2021/10/18 00:42:16;;;;;;;18.80;12.57;;;;;;;;;;5110022;28;20081;-77
2021/10/18 00:46:01;;;;;;;21.20;13.75;;;;;;;;;;5111584;27;20404;-74
2021/10/18 00:48:27;;;;;;;22.63;14.00;;;;;;;;;;5111418;28;20028;-76
2021/10/18 00:50:56;;;;;;;19.30;12.38;;;;;;;;;;5110955;28;20028;-74
2021/10/18 00:54:25;;;;;;;18.48;11.98;;;;;;;;;;5111480;27;20899;-74
2021/10/18 00:56:52;;;;;;;17.00;10.95;;;;;;;;;;5111417;28;20032;-77
2021/10/18 00:59:18;;;;;;;19.20;12.68;;;;;;;;;;5110973;28;20019;-74
2021/10/18 01:01:45;;;;;;;20.23;11.02;;;;;;;;;;5111580;28;20095;-74
2021/10/18 01:04:11;;;;;;;19.20;11.27;;;;;;;;;;5111479;28;20081;-77
2021/10/18 01:06:53;;;;;;;16.65;10.95;;;;;;;;;;5111351;27;20462;-76
2021/10/18 01:09:20;;;;;;;17.17;10.70;;;;;;;;;;5111482;28;20122;-77
2021/10/18 01:11:46;;;;;;;18.02;11.35;;;;;;;;;;5111007;28;20032;-74
2021/10/18 01:14:12;;;;;;;15.60;10.77;;;;;;;;;;5111258;28;20073;-74
2021/10/18 01:16:38;;;;;;;15.88;10.63;;;;;;;;;;5109816;28;20020;-74
2021/10/18 01:19:15;;;;;;;15.63;10.05;;;;;;;;;;5109598;28;20398;-74
2021/10/18 01:21:42;;;;;;;14.63;9.38;;;;;;;;;;5109804;28;20089;-76
2021/10/18 01:25:40;;;;;;;17.08;11.25;;;;;;;;;;5111460;27;20310;-76
2021/10/18 01:30:00;;;;;;;16.05;9.48;;;;;;;;;;5111704;27;20521;-74
2021/10/18 01:34:41;;;;;;;15.80;10.23;;;;;;;;;;5091384;27;20752;-77
2021/10/18 01:37:38;;;;;;;17.30;11.35;;;;;;;;;;5111742;27;20460;-75
2021/10/18 01:40:05;;;;;;;16.27;10.25;;;;;;;;;;5111022;28;20057;-75
2021/10/18 01:42:46;;;;;;;17.65;11.00;;;;;;;;;;5091775;27;20402;-74
2021/10/18 01:47:09;;;;;;;18.98;11.27;;;;;;;;;;5111168;27;20396;-73
2021/10/18 01:49:35;;;;;;;17.30;11.55;;;;;;;;;;5111435;28;20046;-76
2021/10/18 01:52:01;;;;;;;17.52;11.40;;;;;;;;;;5111348;28;20099;-77
2021/10/18 01:54:27;;;;;;;13.15;8.93;;;;;;;;;;5111040;28;20073;-77
2021/10/18 01:56:53;;;;;;;14.98;9.93;;;;;;;;;;5111378;28;20441;-74
2021/10/18 01:59:20;;;;;;;16.45;10.73;;;;;;;;;;5111374;28;20099;-74
2021/10/18 02:01:46;;;;;;;19.10;12.55;;;;;;;;;;5110708;28;20027;-74
2021/10/18 02:04:12;;;;;;;20.77;12.55;;;;;;;;;;5111059;28;20028;-77
2021/10/18 02:07:02;;;;;;;17.60;11.55;;;;;;;;;;5112016;27;20385;-75
2021/10/18 02:09:28;;;;;;;17.63;12.07;;;;;;;;;;5111251;28;20480;-74
2021/10/18 02:11:54;;;;;;;20.85;13.15;;;;;;;;;;5110011;28;20027;-74
2021/10/18 02:15:25;;;;;;;18.38;12.05;;;;;;;;;;5070671;28;20841;-76
2021/10/18 02:18:20;;;;;;;20.70;12.98;;;;;;;;;;5111612;27;20404;-74
2021/10/18 02:20:46;;;;;;;21.33;13.82;;;;;;;;;;5111543;28;20028;-74
2021/10/18 02:23:12;;;;;;;18.27;12.65;;;;;;;;;;5110915;28;20099;-74
2021/10/18 02:27:12;;;;;;;20.15;13.70;;;;;;;;;;5111677;27;20416;-74
2021/10/18 02:29:38;;;;;;;19.10;12.18;;;;;;;;;;5111002;28;20020;-74
2021/10/18 02:32:05;;;;;;;18.27;12.75;;;;;;;;;;5111530;28;20475;-75
2021/10/18 02:34:31;;;;;;;19.48;12.32;;;;;;;;;;5111330;28;20055;-75
2021/10/18 02:36:57;;;;;;;20.80;12.43;;;;;;;;;;5110996;28;20035;-75
2021/10/18 02:39:38;;;;;;;21.48;13.95;;;;;;;;;;5111670;27;20404;-76
2021/10/18 02:42:04;;;;;;;20.02;13.15;;;;;;;;;;5111525;28;20492;-75
2021/10/18 02:44:30;;;;;;;21.95;14.25;;;;;;;;;;5109631;28;20028;-75
2021/10/18 02:46:56;;;;;;;20.48;14.20;;;;;;;;;;5110029;28;20024;-74
2021/10/18 02:50:54;;;;;;;22.92;12.93;;;;;;;;;;5111394;27;20420;-73
2021/10/18 02:53:20;;;;;;;22.05;13.88;;;;;;;;;;5111341;28;20024;-75
2021/10/18 02:55:47;;;;;;;21.85;14.43;;;;;;;;;;5111573;28;20020;-75
2021/10/18 02:58:13;;;;;;;22.88;14.55;;;;;;;;;;5110913;28;20047;-75
2021/10/18 03:00:39;;;;;;;23.15;13.95;;;;;;;;;;5109940;28;20026;-75
2021/10/18 03:03:07;;;;;;;20.33;12.88;;;;;;;;;;5109807;28;20027;-74
2021/10/18 03:07:38;;;;;;;23.38;15.02;;;;;;;;;;5112209;27;20413;-77
2021/10/18 03:10:04;;;;;;;20.75;14.65;;;;;;;;;;5110087;28;20050;-74
2021/10/18 03:12:31;;;;;;;20.58;13.10;;;;;;;;;;5110944;28;20027;-74
2021/10/18 03:16:12;;;;;;;23.02;14.60;;;;;;;;;;5111412;27;20393;-75
2021/10/18 03:20:13;;;;;;;20.95;13.73;;;;;;;;;;5110912;27;20401;-74
2021/10/18 03:22:40;;;;;;;23.38;15.02;;;;;;;;;;5111920;28;20088;-74
2021/10/18 03:25:07;;;;;;;21.25;13.77;;;;;;;;;;5110860;28;20024;-74
2021/10/18 03:27:34;;;;;;;22.55;14.68;;;;;;;;;;5111313;28;20020;-74
2021/10/18 03:30:00;;;;;;;19.95;13.98;;;;;;;;;;5111204;28;20488;-74
2021/10/18 03:32:26;;;;;;;22.15;13.23;;;;;;;;;;5111078;28;20058;-75
2021/10/18 03:35:51;;;;;;;17.75;10.90;;;;;;;;;;5071356;28;20919;-75
2021/10/18 03:38:18;;;;;;;22.38;13.98;;;;;;;;;;5069730;28;20078;-75
2021/10/18 03:41:11;;;;;;;19.80;13.00;;;;;;;;;;5110974;27;20520;-75
2021/10/18 03:43:49;;;;;;;22.48;14.20;;;;;;;;;;5111918;27;20519;-76
2021/10/18 03:46:15;;;;;;;21.95;15.02;;;;;;;;;;5111450;28;20027;-77
2021/10/18 03:48:41;;;;;;;22.00;15.30;;;;;;;;;;5111255;28;20053;-77
2021/10/18 03:51:08;;;;;;;19.30;13.25;;;;;;;;;;5111282;28;20375;-77
2021/10/18 03:53:34;;;;;;;27.10;15.75;;;;;;;;;;5109802;28;20019;-78
2021/10/18 03:56:00;;;;;;;21.50;14.50;;;;;;;;;;5111688;28;20128;-77
2021/10/18 03:58:26;;;;;;;18.75;13.52;;;;;;;;;;5111223;28;20027;-77
2021/10/18 04:00:52;;;;;;;20.73;14.77;;;;;;;;;;5111045;28;20027;-76
2021/10/18 04:03:19;;;;;;;19.95;13.10;;;;;;;;;;5111149;28;20361;-77
2021/10/18 04:05:45;;;;;;;24.83;15.85;;;;;;;;;;5111074;28;20047;-76
2021/10/18 04:08:11;;;;;;;21.60;15.25;;;;;;;;;;5110562;28;20047;-77
2021/10/18 04:10:37;;;;;;;25.42;14.95;;;;;;;;;;5112528;28;20027;-77
2021/10/18 04:15:16;;;;;;;23.23;15.45;;;;;;;;;;5111408;27;20412;-78
2021/10/18 04:17:42;;;;;;;25.77;17.08;;;;;;;;;;5110082;28;20020;-75
2021/10/18 04:20:09;;;;;;;27.20;15.98;;;;;;;;;;5111483;28;20524;-75
2021/10/18 04:22:35;;;;;;;22.63;16.38;;;;;;;;;;5109456;28;20051;-75
2021/10/18 04:25:02;;;;;;;25.08;16.73;;;;;;;;;;5111165;28;20024;-75
2021/10/18 04:27:28;;;;;;;22.02;15.50;;;;;;;;;;5109968;28;20020;-78
2021/10/18 04:29:54;;;;;;;22.38;15.18;;;;;;;;;;5110715;28;20099;-76
2021/10/18 04:32:21;;;;;;;22.42;14.73;;;;;;;;;;5109805;28;20028;-79
2021/10/18 04:34:47;;;;;;;20.88;14.07;;;;;;;;;;5111181;28;20042;-78
2021/10/18 04:37:13;;;;;;;26.65;16.35;;;;;;;;;;5110713;28;20035;-78
2021/10/18 04:39:39;;;;;;;29.45;18.13;;;;;;;;;;5109657;28;20173;-78
2021/10/18 04:42:05;;;;;;;25.73;16.70;;;;;;;;;;5110950;28;20137;-78
2021/10/18 04:44:32;;;;;;;27.85;17.50;;;;;;;;;;5110394;28;20024;-75
2021/10/18 04:46:58;;;;;;;24.13;14.90;;;;;;;;;;5110843;28;20116;-75
2021/10/18 04:49:24;;;;;;;22.45;14.75;;;;;;;;;;5110581;28;20024;-75
2021/10/18 04:51:50;;;;;;;26.17;16.90;;;;;;;;;;5110858;28;20046;-75
2021/10/18 04:54:16;;;;;;;22.80;15.00;;;;;;;;;;5110824;28;20088;-75
2021/10/18 04:56:42;;;;;;;21.45;15.15;;;;;;;;;;5110299;28;20073;-76
2021/10/18 04:59:09;;;;;;;27.88;19.83;;;;;;;;;;5110526;28;20034;-75
2021/10/18 05:01:35;;;;;;;27.60;19.35;;;;;;;;;;5110507;28;20077;-75
2021/10/18 05:05:28;;;;;;;28.63;18.50;;;;;;;;;;5111009;27;20389;-77
2021/10/18 05:08:08;;;;;;;25.92;17.95;;;;;;;;;;5111740;28;20471;-78
2021/10/18 05:10:34;;;;;;;26.05;16.77;;;;;;;;;;5110726;28;20089;-77
2021/10/18 05:14:13;;;;;;;28.33;15.18;;;;;;;;;;5111796;27;20388;-75
2021/10/18 05:16:48;;;;;;;31.08;18.55;;;;;;;;;;5111143;28;20028;-69
2021/10/18 05:19:21;;;;;;;32.40;17.70;;;;;;;;;;5101222;28;20035;-69
2021/10/18 05:21:48;;;;;;;30.25;18.65;;;;;;;;;;5109823;28;20011;-68
2021/10/18 05:24:14;;;;;;;31.35;18.80;;;;;;;;;;5111116;28;20028;-67
2021/10/18 05:26:41;;;;;;;32.35;19.95;;;;;;;;;;5107854;28;20024;-71
2021/10/18 05:29:08;;;;;;;29.33;19.13;;;;;;;;;;5109787;28;20032;-70
2021/10/18 05:31:45;;;;;;;31.70;19.80;;;;;;;;;;5110756;28;20034;-70
2021/10/18 05:34:11;;;;;;;36.03;21.45;;;;;;;;;;5110341;28;20036;-66
2021/10/18 05:37:03;;;;;;;33.63;20.23;;;;;;;;;;5110105;27;20416;-68
2021/10/18 05:39:29;;;;;;;31.05;20.85;;;;;;;;;;5096618;28;20511;-67
2021/10/18 05:41:55;;;;;;;30.48;20.70;;;;;;;;;;5091023;28;20028;-69
2021/10/18 05:44:21;;;;;;;30.83;20.92;;;;;;;;;;5090492;28;20023;-69
2021/10/18 05:46:48;;;;;;;28.73;20.77;;;;;;;;;;5098189;28;20023;-68
2021/10/18 05:49:14;;;;;;;32.28;20.17;;;;;;;;;;5107306;28;20115;-68
2021/10/18 05:51:40;;;;;;;33.80;22.77;;;;;;;;;;5107787;28;20024;-68
2021/10/18 05:54:07;;;;;;;37.83;22.10;;;;;;;;;;5084774;28;20074;-68
2021/10/18 05:57:12;;;;;;;34.22;22.30;;;;;;;;;;5107778;27;20469;-68
2021/10/18 05:59:38;;;;;;;40.05;25.27;;;;;;;;;;5107226;28;20035;-68
2021/10/18 06:02:06;;;;;;;34.92;22.73;;;;;;;;;;5107644;28;20107;-70
2021/10/18 06:04:35;;;;;;;37.85;23.73;;;;;;;;;;5107773;28;20024;-67
2021/10/18 06:07:01;;;;;;;34.60;22.45;;;;;;;;;;5107788;28;20510;-68
2021/10/18 06:09:30;;;;;;;39.28;22.70;;;;;;;;;;5109487;28;20483;-69
2021/10/18 06:11:57;;;;;;;33.30;22.95;;;;;;;;;;5109825;28;20034;-68
2021/10/18 06:14:26;;;;;;;35.88;23.80;;;;;;;;;;5109523;28;20036;-68
2021/10/18 06:16:52;;;;;;;42.47;25.52;;;;;;;;;;5109980;28;20031;-68
2021/10/18 06:19:19;;;;;;;33.50;21.67;;;;;;;;;;5110051;28;20023;-68
2021/10/18 06:21:45;;;;;;;35.13;21.58;;;;;;;;;;5110772;28;20025;-67
2021/10/18 06:25:24;;;;;;;33.83;19.50;;;;;;;;;;5126171;27;20522;-68
2021/10/18 06:27:51;;;;;;;30.42;18.15;;;;;;;;;;5131593;27;20037;-67
2021/10/18 06:30:17;;;;;;;31.27;18.48;;;;;;;;;;5128432;28;20020;-74
2021/10/18 06:32:43;;;;;;;30.65;18.50;;;;;;;;;;5106779;28;20036;-71
2021/10/18 06:35:09;;;;;;;29.25;19.63;;;;;;;;;;5108166;28;20484;-70
2021/10/18 06:37:36;;;;;;;25.92;16.60;;;;;;;;;;5108545;28;20059;-70
2021/10/18 06:42:07;;;;;;;28.02;18.55;;;;;;;;;;5108964;27;20392;-69
2021/10/18 06:44:33;;;;;;;28.15;18.38;;;;;;;;;;5110021;28;20031;-71
2021/10/18 06:47:52;;;;;;;28.55;19.05;;;;;;;;;;5069745;28;20430;-71
2021/10/18 06:50:18;;;;;;;28.40;19.77;;;;;;;;;;5068732;28;20496;-72
2021/10/18 06:52:44;;;;;;;36.65;21.73;;;;;;;;;;5066251;28;20064;-71
2021/10/18 06:56:26;;;;;;;29.08;18.05;;;;;;;;;;5109461;27;20412;-70
2021/10/18 07:00:02;;;;;;;26.63;18.60;;;;;;;;;;5078898;28;20391;-72
2021/10/18 07:02:29;;;;;;;27.15;17.13;;;;;;;;;;5077375;28;20027;-72
2021/10/18 07:10:25;;;;;;;23.63;14.40;;;;;;;;;;5088132;28;20416;-71
2021/10/18 07:18:08;;;;;;;27.20;17.05;;;;;;;;;;5068219;28;20391;-74
2021/10/18 07:20:35;;;;;;;23.08;14.77;;;;;;;;;;5066209;28;20032;-73
2021/10/18 07:23:06;;;;;;;21.52;14.45;;;;;;;;;;5066969;28;20075;-71
2021/10/18 07:26:10;;;;;;;21.65;14.32;;;;;;;;;;5007752;28;20408;-69
2021/10/18 07:30:46;;;;;;;20.05;13.63;;;;;;;;;;5068479;28;20387;-73
2021/10/18 07:33:12;;;;;;;21.98;14.38;;;;;;;;;;5068770;28;20052;-76
2021/10/18 07:35:38;;;;;;;24.23;15.43;;;;;;;;;;5069329;28;20029;-73
2021/10/18 07:39:54;;;;;;;23.90;15.27;;;;;;;;;;5109232;27;20469;-70
2021/10/18 07:42:20;;;;;;;21.92;14.35;;;;;;;;;;5110583;28;20085;-76
2021/10/18 07:45:56;;;;;;;21.55;14.13;;;;;;;;;;5120449;27;20314;-72
2021/10/18 07:48:22;;;;;;;21.65;15.10;;;;;;;;;;5109916;28;20030;-72
2021/10/18 07:53:01;;;;;;;21.23;14.05;;;;;;;;;;5110075;27;20453;-72
2021/10/18 07:55:30;;;;;;;28.50;15.30;;;;;;;;;;5107815;28;20039;-73
2021/10/18 07:58:01;;;;;;;24.05;15.35;;;;;;;;;;5109107;28;20479;-74
2021/10/18 08:00:28;;;;;;;21.15;14.00;;;;;;;;;;5093797;28;20039;-70
2021/10/18 08:02:54;;;;;;;18.65;13.63;;;;;;;;;;5087970;28;20131;-71
2021/10/18 08:07:47;;;;;;;18.75;12.38;;;;;;;;;;5065441;28;20416;-72
2021/10/18 08:10:15;;;;;;;18.08;12.40;;;;;;;;;;5064537;28;20384;-73
2021/10/18 08:14:27;;;;;;;19.10;14.18;;;;;;;;;;5127241;27;20395;-71
2021/10/18 08:22:13;;;;;;;21.30;12.63;;;;;;;;;;5067368;28;20934;-72
2021/10/18 08:26:18;;;;;;;22.23;13.85;;;;;;;;;;5130669;27;20735;-70
2021/10/18 08:29:41;;;;;;;21.67;11.65;;;;;;;;;;5109097;27;20438;-71
2021/10/18 08:32:08;;;;;;;14.77;9.88;;;;;;;;;;5092863;28;20035;-72
2021/10/18 08:34:34;;;;;;;15.95;10.80;;;;;;;;;;5097807;28;20028;-71
2021/10/18 08:37:00;;;;;;;17.88;11.32;;;;;;;;;;5094136;28;20584;-72
2021/10/18 08:40:12;;;;;;;20.30;14.45;;;;;;;;;;5109125;27;20412;-70
2021/10/18 08:42:53;;;;;;;18.35;12.35;;;;;;;;;;5108256;28;20077;-69
2021/10/18 08:47:55;;;;;;;18.98;12.82;;;;;;;;;;5067023;27;1752158;-75
2021/10/18 08:52:44;;;;;;;23.73;14.70;;;;;;;;;;5068115;28;20411;-71
2021/10/18 08:58:23;;;;;;;22.05;11.63;;;;;;;;;;5110410;27;20809;-67
2021/10/18 09:00:53;;;;;;;18.55;11.77;;;;;;;;;;5089475;28;20052;-68
2021/10/18 09:05:22;;;;;;;16.95;9.75;;;;;;;;;;5110362;27;20414;-69
2021/10/18 09:07:48;;;;;;;19.30;11.65;;;;;;;;;;5109304;28;20426;-68
2021/10/18 09:10:37;;;;;;;16.17;10.43;;;;;;;;;;5159642;27;20705;-69
2021/10/18 09:14:03;;;;;;;17.70;10.65;;;;;;;;;;5091498;27;20455;-69
2021/10/18 09:16:35;;;;;;;16.25;9.88;;;;;;;;;;5089923;28;20055;-68
2021/10/18 09:19:05;;;;;;;17.05;11.40;;;;;;;;;;5089820;28;20052;-67
2021/10/18 09:21:37;;;;;;;11.65;7.82;;;;;;;;;;5089794;28;20013;-69
2021/10/18 09:24:42;;;;;;;13.20;7.53;;;;;;;;;;5109183;27;20900;-69
2021/10/18 09:29:13;;;;;;;13.40;8.30;;;;;;;;;;5110856;27;20420;-70
2021/10/18 09:35:49;;;;;;;9.68;5.65;;;;;;;;;;5089244;27;20393;-73
2021/10/18 09:38:18;;;;;;;10.48;5.85;;;;;;;;;;5087587;28;20037;-73
2021/10/18 09:43:26;;;;;;;8.93;5.50;;;;;;;;;;5119385;27;20399;-72
2021/10/18 09:45:58;;;;;;;9.32;6.07;;;;;;;;;;5111879;28;20073;-69
2021/10/18 10:52:59;;;;;;;14.73;9.15;;;;;;;;;;5067891;28;20082;-70
2021/10/18 11:00:54;;;;;;;13.65;8.52;;;;;;;;;;5106768;27;20396;-69
2021/10/18 11:03:25;;;;;;;12.15;8.10;;;;;;;;;;5107478;28;20019;-69
2021/10/18 11:06:11;;;;;;;11.07;7.38;;;;;;;;;;5093205;28;20024;-70
2021/10/18 11:08:41;;;;;;;10.32;6.20;;;;;;;;;;5100485;28;20028;-71
2021/10/18 11:11:09;;;;;;;10.57;6.53;;;;;;;;;;5109731;28;20030;-71
2021/10/18 11:13:45;;;;;;;11.82;6.43;;;;;;;;;;5108722;28;20032;-73
2021/10/18 11:16:12;;;;;;;9.50;5.78;;;;;;;;;;5090677;28;20375;-71
2021/10/18 11:18:39;;;;;;;10.15;6.45;;;;;;;;;;5103758;28;20111;-71
2021/10/18 11:21:16;;;;;;;9.00;5.47;;;;;;;;;;5096874;28;20089;-71
2021/10/18 11:25:55;;;;;;;13.68;7.22;;;;;;;;;;5110345;27;20415;-69
2021/10/18 11:29:08;;;;;;;8.93;6.18;;;;;;;;;;5126861;27;20379;-73
2021/10/18 11:31:38;;;;;;;11.93;5.22;;;;;;;;;;5109302;28;20031;-72
2021/10/18 11:36:17;;;;;;;9.30;5.20;;;;;;;;;;5110569;27;20415;-73
2021/10/18 11:38:45;;;;;;;9.52;5.68;;;;;;;;;;5109006;28;20035;-70
2021/10/18 11:41:11;;;;;;;11.60;7.47;;;;;;;;;;5125959;28;20103;-75
2021/10/18 11:43:37;;;;;;;9.43;5.68;;;;;;;;;;5110573;28;20485;-73
2021/10/18 11:46:03;;;;;;;8.65;5.30;;;;;;;;;;5110234;28;20020;-73
2021/10/18 11:50:02;;;;;;;7.70;4.97;;;;;;;;;;5106900;27;20925;-72
2021/10/18 11:52:28;;;;;;;7.38;4.57;;;;;;;;;;5108601;28;20081;-72
2021/10/18 11:54:54;;;;;;;8.77;5.35;;;;;;;;;;5110595;28;20460;-73
2021/10/18 11:58:05;;;;;;;9.43;5.97;;;;;;;;;;5111118;27;20430;-74
2021/10/18 12:00:41;;;;;;;8.38;5.20;;;;;;;;;;5110443;28;20099;-75
2021/10/18 12:03:07;;;;;;;11.18;5.93;;;;;;;;;;5109003;28;20065;-74
2021/10/18 12:05:39;;;;;;;9.82;6.15;;;;;;;;;;5110239;28;20038;-72
2021/10/18 12:08:06;;;;;;;12.32;7.00;;;;;;;;;;5107888;28;20379;-73
2021/10/18 12:10:33;;;;;;;10.90;6.40;;;;;;;;;;5110109;28;20053;-71
2021/10/18 12:13:10;;;;;;;11.73;6.05;;;;;;;;;;5110529;28;20027;-72
2021/10/18 12:15:43;;;;;;;16.60;9.20;;;;;;;;;;5110570;28;20096;-72
2021/10/18 12:18:10;;;;;;;13.57;9.85;;;;;;;;;;5109261;28;20032;-71
2021/10/18 12:20:40;;;;;;;13.77;8.48;;;;;;;;;;5109678;28;20031;-73
2021/10/18 12:24:41;;;;;;;12.40;7.50;;;;;;;;;;5086789;27;20755;-73
2021/10/18 12:27:12;;;;;;;9.68;6.05;;;;;;;;;;5096083;28;20045;-69
2021/10/18 12:29:38;;;;;;;13.95;6.15;;;;;;;;;;5101415;28;20028;-69
2021/10/18 12:32:09;;;;;;;12.15;7.30;;;;;;;;;;5091856;28;20024;-71
2021/10/18 12:34:35;;;;;;;10.50;5.43;;;;;;;;;;5107571;28;20035;-72
2021/10/18 12:37:05;;;;;;;8.15;4.95;;;;;;;;;;5110273;28;20016;-68
2021/10/18 12:39:31;;;;;;;7.22;4.70;;;;;;;;;;5102013;28;20107;-70
2021/10/18 12:41:57;;;;;;;11.15;5.50;;;;;;;;;;5106113;28;20468;-70
2021/10/18 12:44:35;;;;;;;9.80;4.82;;;;;;;;;;5103488;28;20032;-69
2021/10/18 12:47:01;;;;;;;6.72;4.00;;;;;;;;;;5106975;28;20123;-72
2021/10/18 12:49:28;;;;;;;9.45;5.18;;;;;;;;;;5094214;28;20034;-71
2021/10/18 12:51:54;;;;;;;9.88;5.40;;;;;;;;;;5108067;28;20016;-74
2021/10/18 12:54:22;;;;;;;9.15;5.40;;;;;;;;;;5101843;28;20059;-74
2021/10/18 12:56:58;;;;;;;9.60;6.20;;;;;;;;;;5106162;28;20023;-71
2021/10/18 12:59:24;;;;;;;10.98;5.60;;;;;;;;;;5108374;28;20016;-72
2021/10/18 13:02:09;;;;;;;8.45;4.85;;;;;;;;;;5108196;28;20114;-73
2021/10/18 13:04:36;;;;;;;10.80;5.78;;;;;;;;;;5109459;28;20524;-72
2021/10/18 13:07:02;;;;;;;8.98;4.63;;;;;;;;;;5107874;28;20024;-72
2021/10/18 13:09:28;;;;;;;13.27;7.13;;;;;;;;;;5106934;28;20020;-72
2021/10/18 13:11:54;;;;;;;9.50;4.90;;;;;;;;;;5107178;28;20073;-73
2021/10/18 13:14:20;;;;;;;9.15;4.60;;;;;;;;;;5109345;28;20030;-72
2021/10/18 13:16:46;;;;;;;9.20;5.07;;;;;;;;;;5109510;28;20031;-72
2021/10/18 13:19:13;;;;;;;10.60;5.32;;;;;;;;;;5109983;28;20031;-72
2021/10/18 13:21:39;;;;;;;8.18;5.05;;;;;;;;;;5105736;28;20053;-72
2021/10/18 13:24:05;;;;;;;11.75;6.20;;;;;;;;;;5107176;28;20047;-72
2021/10/18 13:26:31;;;;;;;8.35;4.72;;;;;;;;;;5108800;28;20023;-72
2021/10/18 13:28:58;;;;;;;7.78;4.75;;;;;;;;;;5108827;28;20047;-72
2021/10/18 13:31:24;;;;;;;11.70;5.70;;;;;;;;;;5109926;28;20023;-73
2021/10/18 13:33:50;;;;;;;13.90;7.55;;;;;;;;;;5109037;28;20027;-72
2021/10/18 13:36:16;;;;;;;15.18;9.50;;;;;;;;;;5095723;28;20028;-73
2021/10/18 13:38:43;;;;;;;14.70;7.80;;;;;;;;;;5096001;28;20103;-73
2021/10/18 13:41:09;;;;;;;13.05;7.75;;;;;;;;;;5088731;28;20028;-72
2021/10/18 13:43:35;;;;;;;12.65;7.97;;;;;;;;;;5074319;28;20039;-72
2021/10/18 13:46:02;;;;;;;10.90;6.70;;;;;;;;;;5075283;28;20103;-73
2021/10/18 13:48:28;;;;;;;9.18;6.28;;;;;;;;;;5075571;28;20108;-72
2021/10/18 13:53:00;;;;;;;14.35;9.65;;;;;;;;;;5110915;27;20485;-72
2021/10/18 13:55:27;;;;;;;14.63;9.32;;;;;;;;;;5123444;28;20028;-73
2021/10/18 13:58:14;;;;;;;14.90;9.20;;;;;;;;;;5110950;27;20513;-71
2021/10/18 14:00:40;;;;;;;18.17;10.10;;;;;;;;;;5105461;28;20025;-74
2021/10/18 14:03:06;;;;;;;15.05;10.10;;;;;;;;;;5090761;28;20078;-73
2021/10/18 14:05:33;;;;;;;10.93;6.85;;;;;;;;;;5090386;28;20025;-72
2021/10/18 14:07:59;;;;;;;13.35;7.72;;;;;;;;;;5090652;28;20030;-72
2021/10/18 14:10:25;;;;;;;9.18;5.75;;;;;;;;;;5090514;28;20033;-72
2021/10/18 14:12:51;;;;;;;8.77;5.15;;;;;;;;;;5090315;28;20024;-73
2021/10/18 14:15:18;;;;;;;10.27;6.72;;;;;;;;;;5089126;28;20137;-72
2021/10/18 14:17:44;;;;;;;10.68;6.78;;;;;;;;;;5090354;28;20032;-72
2021/10/18 14:20:12;;;;;;;12.10;6.45;;;;;;;;;;5090017;28;20017;-72
2021/10/18 14:22:38;;;;;;;15.20;7.20;;;;;;;;;;5090180;28;20020;-72
2021/10/18 14:25:06;;;;;;;10.77;7.03;;;;;;;;;;5090486;28;20028;-72
2021/10/18 14:27:32;;;;;;;10.25;6.65;;;;;;;;;;5089824;28;20035;-72
2021/10/18 14:29:59;;;;;;;15.68;8.82;;;;;;;;;;5089024;28;20020;-72
2021/10/18 14:32:25;;;;;;;14.02;9.85;;;;;;;;;;5089019;28;20477;-73
2021/10/18 14:34:51;;;;;;;13.75;8.95;;;;;;;;;;5089896;28;20020;-72
2021/10/18 14:37:18;;;;;;;14.30;7.90;;;;;;;;;;5090411;28;20033;-72
2021/10/18 14:39:44;;;;;;;13.57;8.65;;;;;;;;;;5089970;28;20455;-73
2021/10/18 14:42:10;;;;;;;13.90;9.13;;;;;;;;;;5089748;28;20020;-73
2021/10/18 14:44:36;;;;;;;13.82;8.65;;;;;;;;;;5090087;28;20100;-73
2021/10/18 14:47:02;;;;;;;13.05;8.15;;;;;;;;;;5090066;28;20028;-72
2021/10/18 14:49:29;;;;;;;13.52;8.65;;;;;;;;;;5089547;28;20035;-72
2021/10/18 14:51:55;;;;;;;12.48;8.18;;;;;;;;;;5090177;28;20027;-73
2021/10/18 14:54:22;;;;;;;14.35;9.60;;;;;;;;;;5089208;28;20068;-74
2021/10/18 14:56:48;;;;;;;18.80;10.68;;;;;;;;;;5089190;28;20483;-73
2021/10/18 14:59:15;;;;;;;16.45;10.00;;;;;;;;;;5089865;28;20534;-73
2021/10/18 15:01:41;;;;;;;43.15;24.15;;;;;;;;;;5088170;28;20036;-72
2021/10/18 15:04:07;;;;;;;29.23;17.25;;;;;;;;;;5087228;28;20021;-71
2021/10/18 15:06:35;;;;;;;39.92;17.63;;;;;;;;;;5089618;28;20384;-72
2021/10/18 15:09:03;;;;;;;21.77;14.27;;;;;;;;;;5078504;28;20215;-72
2021/10/18 15:11:29;;;;;;;19.08;12.38;;;;;;;;;;5075722;28;20024;-73
2021/10/18 15:15:39;;;;;;;23.40;15.75;;;;;;;;;;5110960;27;20524;-73
2021/10/18 15:18:05;;;;;;;23.70;15.27;;;;;;;;;;5111076;28;20020;-73
2021/10/18 15:20:31;;;;;;;26.60;17.77;;;;;;;;;;5109895;28;20028;-72
2021/10/18 15:22:57;;;;;;;22.13;12.23;;;;;;;;;;5105516;28;20568;-72
2021/10/18 15:25:24;;;;;;;32.28;19.13;;;;;;;;;;5100001;28;20032;-71
2021/10/18 15:27:50;;;;;;;24.92;16.13;;;;;;;;;;5089416;28;20055;-72
2021/10/18 15:31:26;;;;;;;25.77;16.55;;;;;;;;;;5110675;27;20397;-72
2021/10/18 15:33:52;;;;;;;23.73;14.63;;;;;;;;;;5111600;28;20477;-72
2021/10/18 15:36:20;;;;;;;27.13;16.63;;;;;;;;;;5111065;28;20062;-72
2021/10/18 15:38:46;;;;;;;17.42;12.65;;;;;;;;;;5110912;28;20042;-73
2021/10/18 15:41:12;;;;;;;21.58;14.55;;;;;;;;;;5111357;28;20020;-73
2021/10/18 15:45:27;;;;;;;20.98;14.30;;;;;;;;;;5108920;27;20878;-73
2021/10/18 15:49:01;;;;;;;26.17;16.85;;;;;;;;;;5110664;27;20505;-73
2021/10/18 15:51:27;;;;;;;23.25;15.57;;;;;;;;;;5110972;28;20533;-74
2021/10/18 15:53:54;;;;;;;21.00;14.45;;;;;;;;;;5111302;28;20026;-74
2021/10/18 15:56:20;;;;;;;28.95;18.27;;;;;;;;;;5111334;28;20027;-74
2021/10/18 15:58:46;;;;;;;27.13;16.77;;;;;;;;;;5110927;28;20573;-74
2021/10/18 16:01:12;;;;;;;37.33;19.70;;;;;;;;;;5109879;28;20066;-72
2021/10/18 16:03:38;;;;;;;35.33;21.75;;;;;;;;;;5111145;28;20077;-73
2021/10/18 16:06:38;;;;;;;28.70;19.20;;;;;;;;;;5111062;27;20505;-73
2021/10/18 16:09:05;;;;;;;28.50;18.20;;;;;;;;;;5110144;28;20110;-74
2021/10/18 16:11:31;;;;;;;35.45;25.38;;;;;;;;;;5111185;28;20476;-74
2021/10/18 16:14:38;;;;;;;47.53;29.75;;;;;;;;;;5111655;27;20398;-72
2021/10/18 16:17:05;;;;;;;44.88;28.00;;;;;;;;;;5111345;28;20028;-72
2021/10/18 16:19:32;;;;;;;52.60;33.58;;;;;;;;;;5111001;28;20383;-73
2021/10/18 16:21:58;;;;;;;31.65;21.38;;;;;;;;;;5111231;28;20027;-71
2021/10/18 16:24:24;;;;;;;32.03;19.70;;;;;;;;;;5111119;28;20039;-72
2021/10/18 16:26:51;;;;;;;21.52;14.50;;;;;;;;;;5110756;28;20026;-72
2021/10/18 16:31:53;;;;;;;24.15;16.50;;;;;;;;;;5071363;28;20403;-73
2021/10/18 16:35:41;;;;;;;21.60;14.50;;;;;;;;;;5092070;27;20878;-73
2021/10/18 16:38:27;;;;;;;29.80;18.85;;;;;;;;;;5111742;27;20733;-73
2021/10/18 16:40:54;;;;;;;28.35;19.90;;;;;;;;;;5111175;28;20026;-73
2021/10/18 16:43:20;;;;;;;30.02;21.02;;;;;;;;;;5110016;28;20028;-73
2021/10/18 16:46:06;;;;;;;21.70;16.08;;;;;;;;;;5112249;27;20380;-73
2021/10/18 16:53:00;;;;;;;26.58;17.35;;;;;;;;;;5111441;27;20450;-73
2021/10/18 16:56:59;;;;;;;28.50;18.50;;;;;;;;;;5111573;27;21025;-73
2021/10/18 16:59:25;;;;;;;29.38;21.02;;;;;;;;;;5111439;28;20392;-73
2021/10/18 17:03:24;;;;;;;34.88;24.52;;;;;;;;;;5111159;27;20837;-73
2021/10/18 17:09:52;;;;;;;24.60;17.30;;;;;;;;;;5111223;27;20381;-72
2021/10/18 17:12:19;;;;;;;28.02;17.92;;;;;;;;;;5111424;28;20032;-72
2021/10/18 17:14:48;;;;;;;22.98;15.00;;;;;;;;;;5111505;28;20466;-72
2021/10/18 17:18:26;;;;;;;25.33;17.75;;;;;;;;;;5132016;27;20383;-72
2021/10/18 17:20:52;;;;;;;28.88;17.77;;;;;;;;;;5131981;28;20068;-72
2021/10/18 17:23:18;;;;;;;24.25;16.35;;;;;;;;;;5131380;28;20016;-72
2021/10/18 17:27:02;;;;;;;29.80;17.83;;;;;;;;;;5111533;27;20425;-72
2021/10/18 17:29:28;;;;;;;34.42;22.98;;;;;;;;;;5111200;28;20460;-73
2021/10/18 17:31:54;;;;;;;27.15;18.15;;;;;;;;;;5111702;28;20091;-73
2021/10/18 17:35:10;;;;;;;25.50;17.05;;;;;;;;;;5111927;27;20512;-73
2021/10/18 17:37:36;;;;;;;20.67;14.15;;;;;;;;;;5111056;28;20024;-73
2021/10/18 17:40:59;;;;;;;28.10;16.40;;;;;;;;;;5111994;27;20454;-73
2021/10/18 17:43:25;;;;;;;39.67;22.40;;;;;;;;;;5110956;28;20085;-73